Time;durP1;ratioP1;P1;durP2;ratioP2;P2;SDS_P1;SDS_P2;PMS_P1;PMS_P2;Temp;Humidity;BMP_temperature;BMP_pressure;BME280_temperature;BME280_humidity;BME280_pressure;Samples;Min_cycle;Max_cycle;Signal;HPM_P1;HPM_P2
2021/11/15 00:00:28;;;;;;;;;;;6.90;1.00;;;;;;5006206;28;20466;-70
2021/11/15 00:02:54;;;;;;;;;;;7.00;1.00;;;;;;5005642;28;19941;-70
2021/11/15 00:05:19;;;;;;;;;;;7.00;1.00;;;;;;5008930;28;20379;-70
2021/11/15 00:07:45;;;;;;;;;;;6.90;1.00;;;;;;5007250;28;19976;-70
2021/11/15 00:10:15;;;;;;;;;;;6.90;1.00;;;;;;5009330;28;19924;-70
2021/11/15 00:12:42;;;;;;;;;;;6.90;1.00;;;;;;5007700;28;20008;-70
2021/11/15 00:15:08;;;;;;;;;;;7.00;1.00;;;;;;5009146;28;19918;-68
2021/11/15 00:17:33;;;;;;;;;;;6.90;1.00;;;;;;5008712;28;20024;-68
2021/11/15 00:19:59;;;;;;;;;;;6.90;1.00;;;;;;5010336;28;19909;-68
2021/11/15 00:22:24;;;;;;;;;;;6.90;1.00;;;;;;5010423;28;20406;-68
2021/11/15 00:24:50;;;;;;;;;;;6.80;1.00;;;;;;5012770;28;20325;-68
2021/11/15 00:27:15;;;;;;;;;;;6.90;1.00;;;;;;5012085;28;20408;-68
2021/11/15 00:29:41;;;;;;;;;;;6.90;1.00;;;;;;5004638;28;20377;-68
2021/11/15 00:32:07;;;;;;;;;;;6.80;1.00;;;;;;5011512;28;19921;-68
2021/11/15 00:34:32;;;;;;;;;;;6.80;1.00;;;;;;5012551;28;19909;-68
2021/11/15 00:36:58;;;;;;;;;;;6.80;1.00;;;;;;5011313;28;19929;-68
2021/11/15 00:39:23;;;;;;;;;;;6.80;1.00;;;;;;5011516;28;19993;-68
2021/11/15 00:41:49;;;;;;;;;;;6.80;1.00;;;;;;5011552;28;19910;-68
2021/11/15 00:44:14;;;;;;;;;;;6.80;1.00;;;;;;5011838;28;19972;-68
2021/11/15 00:46:40;;;;;;;;;;;6.80;1.00;;;;;;5012072;28;20000;-68
2021/11/15 00:49:05;;;;;;;;;;;6.80;1.00;;;;;;5011671;28;19910;-68
2021/11/15 00:51:31;;;;;;;;;;;6.80;1.00;;;;;;5011628;28;19997;-68
2021/11/15 00:53:57;;;;;;;;;;;6.80;1.00;;;;;;5010388;28;19913;-68
2021/11/15 00:56:23;;;;;;;;;;;6.80;1.00;;;;;;5012023;28;20420;-70
2021/11/15 00:58:48;;;;;;;;;;;6.80;1.00;;;;;;5011893;28;19910;-70
2021/11/15 01:01:14;;;;;;;;;;;6.70;1.00;;;;;;5011404;28;19939;-70
2021/11/15 01:03:40;;;;;;;;;;;6.70;1.00;;;;;;5010793;28;19916;-69
2021/11/15 01:06:06;;;;;;;;;;;6.70;1.00;;;;;;5011743;28;19985;-70
2021/11/15 01:08:31;;;;;;;;;;;6.60;1.00;;;;;;5010064;28;19960;-69
2021/11/15 01:10:57;;;;;;;;;;;6.50;1.00;;;;;;5011521;28;19910;-70
2021/11/15 01:13:23;;;;;;;;;;;6.40;1.00;;;;;;5010273;28;19914;-69
2021/11/15 01:15:49;;;;;;;;;;;6.40;1.00;;;;;;5011367;28;19916;-69
2021/11/15 01:18:15;;;;;;;;;;;6.40;1.00;;;;;;5011275;28;19917;-69
2021/11/15 01:20:41;;;;;;;;;;;6.40;1.00;;;;;;5011479;28;19933;-70
2021/11/15 01:23:07;;;;;;;;;;;6.40;1.00;;;;;;5009278;28;19916;-70
2021/11/15 01:25:34;;;;;;;;;;;6.40;1.00;;;;;;5011456;28;20036;-70
2021/11/15 01:27:59;;;;;;;;;;;6.40;1.00;;;;;;5011068;28;19914;-70
2021/11/15 01:30:25;;;;;;;;;;;6.40;1.00;;;;;;5011563;28;19976;-70
2021/11/15 01:32:52;;;;;;;;;;;6.40;1.00;;;;;;5008501;28;19921;-70
2021/11/15 01:35:17;;;;;;;;;;;6.30;1.00;;;;;;5010386;28;20208;-70
2021/11/15 01:37:43;;;;;;;;;;;6.30;1.00;;;;;;5009260;28;20024;-70
2021/11/15 01:40:11;;;;;;;;;;;6.20;1.00;;;;;;5011372;28;19910;-69
2021/11/15 01:42:36;;;;;;;;;;;6.20;1.00;;;;;;5009741;28;19917;-70
2021/11/15 01:45:03;;;;;;;;;;;6.10;1.00;;;;;;5011245;28;19910;-69
2021/11/15 01:47:29;;;;;;;;;;;6.10;1.00;;;;;;5010555;28;19913;-69
2021/11/15 01:49:55;;;;;;;;;;;6.10;1.00;;;;;;5010805;28;19910;-67
2021/11/15 01:52:20;;;;;;;;;;;6.10;1.00;;;;;;5001325;28;19917;-70
2021/11/15 01:54:46;;;;;;;;;;;6.10;1.00;;;;;;5009387;28;19909;-70
2021/11/15 01:57:13;;;;;;;;;;;6.20;1.00;;;;;;5010463;28;19914;-70
2021/11/15 01:59:38;;;;;;;;;;;6.20;1.00;;;;;;5010354;28;19909;-70
2021/11/15 02:02:04;;;;;;;;;;;6.20;1.00;;;;;;5007543;28;19920;-70
2021/11/15 02:04:30;;;;;;;;;;;6.30;1.00;;;;;;5009948;28;20285;-70
2021/11/15 02:06:55;;;;;;;;;;;6.20;1.00;;;;;;5009768;28;19995;-69
2021/11/15 02:09:21;;;;;;;;;;;6.20;1.00;;;;;;5009418;28;19909;-70
2021/11/15 02:11:46;;;;;;;;;;;6.20;1.00;;;;;;5009387;28;19921;-69
2021/11/15 02:14:12;;;;;;;;;;;6.20;1.00;;;;;;5010154;28;19909;-70
2021/11/15 02:16:37;;;;;;;;;;;6.20;1.00;;;;;;5010557;28;19924;-69
2021/11/15 02:19:03;;;;;;;;;;;6.20;1.00;;;;;;5010392;28;19909;-70
2021/11/15 02:21:29;;;;;;;;;;;6.20;1.00;;;;;;5009602;28;19937;-70
2021/11/15 02:23:54;;;;;;;;;;;6.20;1.00;;;;;;5008644;28;19960;-69
2021/11/15 02:26:21;;;;;;;;;;;6.20;1.00;;;;;;5010307;28;19961;-69
2021/11/15 02:28:48;;;;;;;;;;;6.20;1.00;;;;;;5009995;28;19954;-69
2021/11/15 02:31:15;;;;;;;;;;;6.20;1.00;;;;;;5009986;28;19956;-70
2021/11/15 02:33:41;;;;;;;;;;;6.30;1.00;;;;;;5008804;28;19925;-70
2021/11/15 02:36:07;;;;;;;;;;;6.30;1.00;;;;;;5010113;28;19991;-68
2021/11/15 02:38:33;;;;;;;;;;;6.30;1.00;;;;;;5008246;28;19913;-69
2021/11/15 02:40:59;;;;;;;;;;;6.20;1.00;;;;;;5009877;28;19914;-69
2021/11/15 02:43:24;;;;;;;;;;;6.30;1.00;;;;;;5008352;28;19914;-69
2021/11/15 02:45:50;;;;;;;;;;;6.20;1.00;;;;;;5009626;28;19920;-69
2021/11/15 02:48:19;;;;;;;;;;;6.20;1.00;;;;;;5009404;28;20489;-69
2021/11/15 02:50:45;;;;;;;;;;;6.10;1.00;;;;;;5010267;28;20546;-69
2021/11/15 02:53:11;;;;;;;;;;;6.10;1.00;;;;;;5007288;28;20419;-69
2021/11/15 02:55:36;;;;;;;;;;;6.10;1.00;;;;;;5009223;28;19909;-68
2021/11/15 02:58:05;;;;;;;;;;;6.10;1.00;;;;;;5008952;28;20012;-69
2021/11/15 03:00:34;;;;;;;;;;;6.10;1.00;;;;;;5009174;28;20386;-69
2021/11/15 03:02:59;;;;;;;;;;;6.00;1.00;;;;;;5007434;28;19909;-68
2021/11/15 03:05:30;;;;;;;;;;;6.00;1.00;;;;;;5008719;28;19927;-68
2021/11/15 03:07:56;;;;;;;;;;;6.00;1.00;;;;;;5006622;28;19918;-69
2021/11/15 03:10:22;;;;;;;;;;;6.10;1.00;;;;;;5009103;28;19996;-69
2021/11/15 03:12:48;;;;;;;;;;;6.00;1.00;;;;;;5008185;28;19928;-69
2021/11/15 03:15:27;;;;;;;;;;;6.00;1.00;;;;;;5009574;28;20286;-69
2021/11/15 03:17:54;;;;;;;;;;;6.00;1.00;;;;;;5008235;28;20012;-69
2021/11/15 03:20:19;;;;;;;;;;;5.90;1.00;;;;;;5009452;28;19916;-66
2021/11/15 03:22:45;;;;;;;;;;;5.90;1.00;;;;;;5006755;28;19923;-66
2021/11/15 03:25:10;;;;;;;;;;;5.90;1.00;;;;;;5009882;28;19948;-69
2021/11/15 03:27:36;;;;;;;;;;;5.90;1.00;;;;;;5008225;28;19927;-66
2021/11/15 03:30:04;;;;;;;;;;;5.90;1.00;;;;;;5001488;28;19913;-69
2021/11/15 03:32:30;;;;;;;;;;;5.90;1.00;;;;;;5007337;28;19918;-69
2021/11/15 03:34:55;;;;;;;;;;;5.90;1.00;;;;;;5008897;28;19916;-70
2021/11/15 03:37:21;;;;;;;;;;;5.80;1.00;;;;;;5007051;28;20345;-70
2021/11/15 03:39:46;;;;;;;;;;;5.80;1.00;;;;;;5008870;28;19920;-70
2021/11/15 03:42:12;;;;;;;;;;;5.80;1.00;;;;;;5007735;28;19941;-70
2021/11/15 03:44:37;;;;;;;;;;;5.80;1.00;;;;;;5008983;28;19975;-69
2021/11/15 03:47:03;;;;;;;;;;;5.80;1.00;;;;;;5008062;28;19917;-70
2021/11/15 03:49:28;;;;;;;;;;;5.80;1.00;;;;;;5008778;28;20244;-68
2021/11/15 03:51:54;;;;;;;;;;;5.80;1.00;;;;;;5007398;28;20283;-69
2021/11/15 03:54:19;;;;;;;;;;;5.80;1.00;;;;;;5007038;28;19916;-70
2021/11/15 03:56:45;;;;;;;;;;;5.80;1.00;;;;;;5012371;28;19944;-70
2021/11/15 03:59:11;;;;;;;;;;;5.80;1.00;;;;;;5012206;28;19919;-70
2021/11/15 04:01:38;;;;;;;;;;;5.80;1.00;;;;;;5005796;28;20751;-70
2021/11/15 04:04:07;;;;;;;;;;;5.80;1.00;;;;;;4998890;28;19916;-69
2021/11/15 04:06:38;;;;;;;;;;;5.80;1.00;;;;;;5011927;28;19997;-69
2021/11/15 04:09:06;;;;;;;;;;;5.80;1.00;;;;;;5011292;28;20315;-69
2021/11/15 04:11:32;;;;;;;;;;;5.80;1.00;;;;;;5012080;28;19909;-69
2021/11/15 04:13:59;;;;;;;;;;;5.80;1.00;;;;;;5011025;28;19971;-70
2021/11/15 04:16:25;;;;;;;;;;;5.90;1.00;;;;;;5011983;28;19944;-69
2021/11/15 04:18:55;;;;;;;;;;;5.90;1.00;;;;;;5012014;28;19921;-70
2021/11/15 04:21:21;;;;;;;;;;;5.90;1.00;;;;;;5012093;28;19967;-70
2021/11/15 04:23:47;;;;;;;;;;;5.90;1.00;;;;;;5010422;28;19918;-69
2021/11/15 04:26:12;;;;;;;;;;;5.90;1.00;;;;;;5011877;28;20024;-69
2021/11/15 04:28:38;;;;;;;;;;;5.90;1.00;;;;;;5012017;28;19913;-68
2021/11/15 04:31:04;;;;;;;;;;;5.90;1.00;;;;;;5012095;28;19974;-69
2021/11/15 04:33:29;;;;;;;;;;;5.90;1.00;;;;;;5011622;28;19917;-70
2021/11/15 04:35:55;;;;;;;;;;;5.90;1.00;;;;;;5012503;28;20441;-69
2021/11/15 04:38:21;;;;;;;;;;;5.90;1.00;;;;;;5009800;28;19914;-67
2021/11/15 04:40:47;;;;;;;;;;;5.90;1.00;;;;;;5011637;28;20241;-69
2021/11/15 04:43:13;;;;;;;;;;;5.90;1.00;;;;;;5010641;28;19921;-69
2021/11/15 04:45:38;;;;;;;;;;;5.90;1.00;;;;;;5012099;28;19940;-69
2021/11/15 04:48:04;;;;;;;;;;;5.90;1.00;;;;;;5010324;28;19910;-69
2021/11/15 04:50:29;;;;;;;;;;;5.90;1.00;;;;;;5011443;28;19960;-69
2021/11/15 04:52:55;;;;;;;;;;;5.90;1.00;;;;;;5001097;28;20357;-68
2021/11/15 04:55:21;;;;;;;;;;;5.90;1.00;;;;;;5011921;28;20263;-70
2021/11/15 04:57:47;;;;;;;;;;;5.90;1.00;;;;;;5011140;28;19913;-68
2021/11/15 05:00:17;;;;;;;;;;;5.90;1.00;;;;;;5011484;28;19967;-69
2021/11/15 05:02:42;;;;;;;;;;;5.90;1.00;;;;;;5010340;28;20009;-69
2021/11/15 05:05:08;;;;;;;;;;;5.90;1.00;;;;;;5011534;28;19917;-70
2021/11/15 05:07:34;;;;;;;;;;;5.90;1.00;;;;;;5009778;28;19929;-69
2021/11/15 05:09:59;;;;;;;;;;;5.90;1.00;;;;;;5011454;28;20028;-69
2021/11/15 05:12:25;;;;;;;;;;;5.90;1.00;;;;;;5009830;28;19960;-71
2021/11/15 05:14:50;;;;;;;;;;;5.90;1.00;;;;;;5011621;28;20293;-68
2021/11/15 05:17:16;;;;;;;;;;;5.90;1.00;;;;;;5010546;28;19963;-69
2021/11/15 05:19:44;;;;;;;;;;;5.90;1.00;;;;;;5011320;28;19920;-69
2021/11/15 05:22:09;;;;;;;;;;;5.80;1.00;;;;;;5009000;28;19960;-69
2021/11/15 05:24:35;;;;;;;;;;;5.80;1.00;;;;;;5010829;28;20578;-68
2021/11/15 05:27:00;;;;;;;;;;;5.80;1.00;;;;;;5011102;28;20402;-69
2021/11/15 05:29:26;;;;;;;;;;;5.80;1.00;;;;;;5011109;28;19913;-69
2021/11/15 05:31:51;;;;;;;;;;;5.80;1.00;;;;;;5010323;28;20024;-69
2021/11/15 05:34:17;;;;;;;;;;;5.80;1.00;;;;;;5010984;28;19909;-69
2021/11/15 05:36:42;;;;;;;;;;;5.70;1.00;;;;;;5010503;28;19929;-69
2021/11/15 05:39:08;;;;;;;;;;;5.70;1.00;;;;;;5009724;28;19996;-69
2021/11/15 05:41:33;;;;;;;;;;;5.80;1.00;;;;;;5010633;28;19917;-69
2021/11/15 05:43:59;;;;;;;;;;;5.80;1.00;;;;;;5010171;28;20286;-68
2021/11/15 05:46:25;;;;;;;;;;;5.80;1.00;;;;;;5010575;28;19918;-69
2021/11/15 05:48:50;;;;;;;;;;;5.80;1.00;;;;;;5009353;28;20342;-69
2021/11/15 05:51:16;;;;;;;;;;;5.80;1.00;;;;;;5010409;28;19975;-69
2021/11/15 05:53:46;;;;;;;;;;;5.80;1.00;;;;;;5000160;28;20290;-69
2021/11/15 05:56:11;;;;;;;;;;;5.80;1.00;;;;;;5005174;28;19913;-68
2021/11/15 05:58:37;;;;;;;;;;;5.80;1.00;;;;;;5007396;28;19916;-68
2021/11/15 06:01:03;;;;;;;;;;;5.70;1.00;;;;;;5010455;28;19914;-69
2021/11/15 06:03:29;;;;;;;;;;;5.70;1.00;;;;;;5007457;28;19958;-69
2021/11/15 06:05:55;;;;;;;;;;;5.80;1.00;;;;;;5002865;28;20008;-69
2021/11/15 06:08:20;;;;;;;;;;;5.70;1.00;;;;;;4991162;28;19913;-70
2021/11/15 06:10:46;;;;;;;;;;;5.70;1.00;;;;;;5010002;28;19972;-71
2021/11/15 06:13:12;;;;;;;;;;;5.70;1.00;;;;;;5008609;28;20027;-70
2021/11/15 06:15:37;;;;;;;;;;;5.70;1.00;;;;;;4992803;28;19917;-70
2021/11/15 06:18:03;;;;;;;;;;;5.70;1.00;;;;;;5008840;28;19921;-70
2021/11/15 06:20:28;;;;;;;;;;;5.70;1.00;;;;;;5002652;28;20036;-70
2021/11/15 06:22:55;;;;;;;;;;;5.80;1.00;;;;;;5007415;28;20007;-71
2021/11/15 06:25:20;;;;;;;;;;;5.80;1.00;;;;;;5010561;28;20020;-70
2021/11/15 06:27:46;;;;;;;;;;;5.80;1.00;;;;;;5007514;28;20469;-70
2021/11/15 06:30:13;;;;;;;;;;;5.90;1.00;;;;;;4996457;28;19913;-70
2021/11/15 06:32:39;;;;;;;;;;;5.90;1.00;;;;;;5008942;28;19917;-69
2021/11/15 06:35:05;;;;;;;;;;;5.90;1.00;;;;;;5010057;28;19921;-70
2021/11/15 06:37:32;;;;;;;;;;;5.80;1.00;;;;;;5008431;28;20387;-71
2021/11/15 06:39:57;;;;;;;;;;;5.70;1.00;;;;;;4997473;28;19956;-70
2021/11/15 06:42:23;;;;;;;;;;;5.70;1.00;;;;;;4990742;28;20691;-69
2021/11/15 06:44:48;;;;;;;;;;;5.60;1.00;;;;;;5006970;28;19924;-70
2021/11/15 06:47:14;;;;;;;;;;;5.60;1.00;;;;;;5009412;28;20071;-69
2021/11/15 06:49:39;;;;;;;;;;;5.60;1.00;;;;;;5008974;28;19914;-70
2021/11/15 06:52:05;;;;;;;;;;;5.70;1.00;;;;;;5007444;28;20346;-71
2021/11/15 06:54:31;;;;;;;;;;;5.70;1.00;;;;;;5008856;28;19913;-67
2021/11/15 06:56:56;;;;;;;;;;;5.60;1.00;;;;;;5006281;28;19917;-67
2021/11/15 06:59:22;;;;;;;;;;;5.60;1.00;;;;;;5005977;28;19914;-69
2021/11/15 07:01:47;;;;;;;;;;;5.60;1.00;;;;;;4987704;28;20035;-69
2021/11/15 07:04:13;;;;;;;;;;;5.60;1.00;;;;;;5004408;28;19925;-70
2021/11/15 07:06:39;;;;;;;;;;;5.60;1.00;;;;;;5008365;28;20626;-68
2021/11/15 07:09:07;;;;;;;;;;;5.60;1.00;;;;;;5007636;28;19925;-69
2021/11/15 07:11:34;;;;;;;;;;;5.70;1.00;;;;;;5009079;28;19917;-68
2021/11/15 07:14:00;;;;;;;;;;;5.80;1.00;;;;;;5008335;28;20020;-70
2021/11/15 07:16:25;;;;;;;;;;;5.70;1.00;;;;;;5008712;28;20016;-69
2021/11/15 07:18:54;;;;;;;;;;;5.80;1.00;;;;;;5006358;28;19922;-68
2021/11/15 07:21:20;;;;;;;;;;;5.60;1.00;;;;;;5007115;28;19917;-69
2021/11/15 07:23:46;;;;;;;;;;;5.60;1.00;;;;;;5006185;28;20385;-68
2021/11/15 07:26:12;;;;;;;;;;;5.60;1.00;;;;;;5008356;28;19921;-68
2021/11/15 07:28:38;;;;;;;;;;;5.60;1.00;;;;;;5008459;28;19975;-70
2021/11/15 07:31:03;;;;;;;;;;;5.60;1.00;;;;;;5007590;28;19925;-69
2021/11/15 07:33:29;;;;;;;;;;;5.60;1.00;;;;;;5007459;28;19925;-68
2021/11/15 07:35:55;;;;;;;;;;;5.60;1.00;;;;;;5009010;28;19928;-70
2021/11/15 07:38:20;;;;;;;;;;;5.60;1.00;;;;;;5007057;28;20290;-69
2021/11/15 07:40:46;;;;;;;;;;;5.60;1.00;;;;;;4991013;28;19921;-69
2021/11/15 07:43:12;;;;;;;;;;;5.60;1.00;;;;;;5007690;28;19913;-69
2021/11/15 07:45:37;;;;;;;;;;;5.60;1.00;;;;;;5007950;28;19937;-69
2021/11/15 07:48:03;;;;;;;;;;;5.60;1.00;;;;;;5008055;28;20382;-69
2021/11/15 07:50:29;;;;;;;;;;;5.70;1.00;;;;;;5002761;28;20389;-69
2021/11/15 07:52:54;;;;;;;;;;;5.70;1.00;;;;;;4997319;28;20362;-69
2021/11/15 07:55:20;;;;;;;;;;;5.70;1.00;;;;;;5005799;28;19913;-69
2021/11/15 07:57:46;;;;;;;;;;;5.80;1.00;;;;;;5008124;28;19921;-69
2021/11/15 08:00:13;;;;;;;;;;;5.80;1.00;;;;;;5008596;28;19949;-69
2021/11/15 08:02:39;;;;;;;;;;;5.80;1.00;;;;;;5007410;28;20291;-69
2021/11/15 08:05:05;;;;;;;;;;;5.80;1.00;;;;;;5007875;28;19921;-69
2021/11/15 08:07:31;;;;;;;;;;;5.90;1.00;;;;;;5006387;28;19968;-69
2021/11/15 08:09:56;;;;;;;;;;;5.90;1.00;;;;;;4989502;28;19914;-69
2021/11/15 08:12:32;;;;;;;;;;;5.90;1.00;;;;;;5007215;28;20934;-69
2021/11/15 08:15:01;;;;;;;;;;;5.90;1.00;;;;;;5007907;28;20016;-68
2021/11/15 08:17:26;;;;;;;;;;;5.90;1.00;;;;;;5007289;28;19918;-69
2021/11/15 08:19:52;;;;;;;;;;;5.90;1.00;;;;;;5008292;28;20478;-69
2021/11/15 08:22:18;;;;;;;;;;;6.00;1.00;;;;;;5005620;28;19913;-69
2021/11/15 08:24:53;;;;;;;;;;;6.00;1.00;;;;;;5008612;28;19914;-69
2021/11/15 08:27:18;;;;;;;;;;;5.90;1.00;;;;;;5007439;28;19948;-69
2021/11/15 08:29:45;;;;;;;;;;;6.00;1.00;;;;;;4997015;28;19969;-68
2021/11/15 08:32:12;;;;;;;;;;;6.00;1.00;;;;;;5006514;28;19922;-68
2021/11/15 08:34:38;;;;;;;;;;;6.00;1.00;;;;;;5008753;28;19925;-69
2021/11/15 08:37:05;;;;;;;;;;;6.00;1.00;;;;;;5007592;28;20436;-69
2021/11/15 08:39:31;;;;;;;;;;;6.00;1.00;;;;;;5007516;28;19933;-68
2021/11/15 08:41:59;;;;;;;;;;;6.10;1.00;;;;;;5009013;28;19965;-69
2021/11/15 08:44:26;;;;;;;;;;;6.10;1.00;;;;;;5011608;28;19918;-68
2021/11/15 08:46:53;;;;;;;;;;;6.20;1.00;;;;;;5011945;28;19913;-68
2021/11/15 08:49:19;;;;;;;;;;;6.20;1.00;;;;;;5011282;28;19914;-68
2021/11/15 08:51:46;;;;;;;;;;;6.30;1.00;;;;;;5011053;28;20282;-69
2021/11/15 08:54:15;;;;;;;;;;;6.30;1.00;;;;;;5010124;28;20072;-69
2021/11/15 08:56:44;;;;;;;;;;;6.30;1.00;;;;;;5011339;28;20469;-69
2021/11/15 08:59:10;;;;;;;;;;;6.20;1.00;;;;;;5011265;28;19921;-69
2021/11/15 09:01:36;;;;;;;;;;;6.20;1.00;;;;;;5012066;28;19914;-69
2021/11/15 09:04:02;;;;;;;;;;;6.20;1.00;;;;;;5009900;28;20692;-69
2021/11/15 09:06:30;;;;;;;;;;;6.20;1.00;;;;;;5010914;28;20068;-69
2021/11/15 09:08:56;;;;;;;;;;;6.20;1.00;;;;;;5010145;28;19924;-69
2021/11/15 09:11:22;;;;;;;;;;;6.30;1.00;;;;;;5010739;28;19913;-69
2021/11/15 09:13:48;;;;;;;;;;;6.30;1.00;;;;;;5010241;28;19921;-69
2021/11/15 09:16:15;;;;;;;;;;;6.30;1.00;;;;;;5010938;28;20346;-69
2021/11/15 09:18:42;;;;;;;;;;;6.40;1.00;;;;;;5010798;28;20326;-69
2021/11/15 09:21:08;;;;;;;;;;;6.40;1.00;;;;;;5010970;28;20417;-69
2021/11/15 09:23:35;;;;;;;;;;;6.40;1.00;;;;;;5008331;28;19921;-69
2021/11/15 09:26:01;;;;;;;;;;;6.40;1.00;;;;;;5006334;28;19968;-69
2021/11/15 09:28:27;;;;;;;;;;;6.50;1.00;;;;;;5002470;28;19918;-69
2021/11/15 09:30:53;;;;;;;;;;;6.50;1.00;;;;;;5010220;28;19914;-69
2021/11/15 09:33:18;;;;;;;;;;;6.50;1.00;;;;;;5009717;28;19978;-69
2021/11/15 09:35:48;;;;;;;;;;;6.50;1.00;;;;;;5010449;28;19960;-68
2021/11/15 09:38:15;;;;;;;;;;;6.50;1.00;;;;;;5008897;28;19925;-68
2021/11/15 09:40:41;;;;;;;;;;;6.50;1.00;;;;;;5011170;28;19909;-68
2021/11/15 09:43:06;;;;;;;;;;;6.50;1.00;;;;;;5009995;28;19940;-68
2021/11/15 09:45:32;;;;;;;;;;;6.40;1.00;;;;;;5011165;28;19929;-68
2021/11/15 09:47:58;;;;;;;;;;;6.40;1.00;;;;;;5010526;28;20416;-69
2021/11/15 09:50:24;;;;;;;;;;;6.50;1.00;;;;;;5010409;28;20248;-70
2021/11/15 09:52:51;;;;;;;;;;;6.50;1.00;;;;;;5007977;28;19910;-68
2021/11/15 09:55:17;;;;;;;;;;;6.40;1.00;;;;;;5010225;28;20433;-69
2021/11/15 09:57:44;;;;;;;;;;;6.50;1.00;;;;;;5009128;28;19917;-69
2021/11/15 10:00:12;;;;;;;;;;;6.50;1.00;;;;;;5010436;28;19920;-68
2021/11/15 10:02:37;;;;;;;;;;;6.40;1.00;;;;;;5007898;28;19956;-68
2021/11/15 10:05:07;;;;;;;;;;;6.40;1.00;;;;;;5010207;28;20386;-68
2021/11/15 10:07:37;;;;;;;;;;;6.30;1.00;;;;;;5008069;28;20650;-68
2021/11/15 10:10:25;;;;;;;;;;;6.30;1.00;;;;;;5010509;28;19914;-69
2021/11/15 10:13:00;;;;;;;;;;;6.30;1.00;;;;;;4989191;28;19918;-68
2021/11/15 10:15:26;;;;;;;;;;;6.30;1.00;;;;;;5010905;28;19959;-69
2021/11/15 10:17:51;;;;;;;;;;;6.30;1.00;;;;;;5010230;28;19960;-69
2021/11/15 10:20:18;;;;;;;;;;;6.40;1.00;;;;;;5010488;28;20375;-69
2021/11/15 10:22:43;;;;;;;;;;;6.40;1.00;;;;;;5007832;28;19917;-69
2021/11/15 10:25:09;;;;;;;;;;;6.30;1.00;;;;;;5010706;28;19916;-69
2021/11/15 10:27:36;;;;;;;;;;;6.30;1.00;;;;;;5009833;28;19999;-68
2021/11/15 10:30:08;;;;;;;;;;;6.30;1.00;;;;;;5010815;28;20246;-68
2021/11/15 10:32:40;;;;;;;;;;;6.20;1.00;;;;;;4989292;28;20024;-68
2021/11/15 10:35:06;;;;;;;;;;;6.20;1.00;;;;;;4990973;28;19952;-68
2021/11/15 10:37:32;;;;;;;;;;;6.30;1.00;;;;;;5008506;28;19952;-68
2021/11/15 10:40:05;;;;;;;;;;;6.20;1.00;;;;;;5009236;28;19929;-68
2021/11/15 10:42:37;;;;;;;;;;;6.20;1.00;;;;;;5008730;28;19987;-69
2021/11/15 10:45:06;;;;;;;;;;;6.30;1.00;;;;;;5009909;28;19945;-69
2021/11/15 10:47:33;;;;;;;;;;;6.30;1.00;;;;;;5009406;28;19917;-68
2021/11/15 10:50:10;;;;;;;;;;;6.40;1.00;;;;;;5008177;28;20294;-68
2021/11/15 10:52:37;;;;;;;;;;;6.40;1.00;;;;;;4998979;28;20231;-68
2021/11/15 10:55:07;;;;;;;;;;;6.50;1.00;;;;;;5009934;28;19909;-68
2021/11/15 10:57:33;;;;;;;;;;;6.50;1.00;;;;;;5009420;28;19918;-69
2021/11/15 11:00:08;;;;;;;;;;;6.50;1.00;;;;;;5009385;28;19924;-68
2021/11/15 11:02:57;;;;;;;;;;;6.50;1.00;;;;;;5008821;28;19953;-69
2021/11/15 11:05:22;;;;;;;;;;;6.40;1.00;;;;;;4998276;28;19913;-69
2021/11/15 11:07:50;;;;;;;;;;;6.40;1.00;;;;;;5007505;28;19917;-68
2021/11/15 11:10:17;;;;;;;;;;;6.40;1.00;;;;;;5009533;28;19979;-68
2021/11/15 11:12:59;;;;;;;;;;;6.50;1.00;;;;;;5007380;28;19967;-69
2021/11/15 11:18:12;;;;;;;;;;;6.40;1.00;;;;;;5008698;28;19917;-69
2021/11/15 11:21:23;;;;;;;;;;;6.50;1.00;;;;;;5009278;28;19952;-68
2021/11/15 11:26:12;;;;;;;;;;;6.50;1.00;;;;;;5009345;28;20382;-68
2021/11/15 11:28:38;;;;;;;;;;;6.50;1.00;;;;;;5008743;28;19913;-68
2021/11/15 11:31:05;;;;;;;;;;;6.50;1.00;;;;;;5008971;28;20382;-69
2021/11/15 11:33:31;;;;;;;;;;;6.50;1.00;;;;;;5007805;28;19913;-70
2021/11/15 11:35:58;;;;;;;;;;;6.60;1.00;;;;;;5004790;28;19933;-71
2021/11/15 11:38:23;;;;;;;;;;;6.50;1.00;;;;;;5003883;28;19963;-70
2021/11/15 11:40:50;;;;;;;;;;;6.40;1.00;;;;;;5009166;28;19918;-71
2021/11/15 11:43:16;;;;;;;;;;;6.40;1.00;;;;;;5007210;28;19987;-69
2021/11/15 11:45:42;;;;;;;;;;;6.30;1.00;;;;;;5009323;28;20056;-70
2021/11/15 11:48:08;;;;;;;;;;;6.30;1.00;;;;;;5009288;28;19914;-70
2021/11/15 11:50:33;;;;;;;;;;;6.30;1.00;;;;;;4995200;28;19972;-69
2021/11/15 11:53:03;;;;;;;;;;;6.40;1.00;;;;;;4999373;28;19914;-72
2021/11/15 11:55:31;;;;;;;;;;;6.40;1.00;;;;;;5007756;28;20032;-71
2021/11/15 11:57:57;;;;;;;;;;;6.40;1.00;;;;;;5005626;28;19924;-69
2021/11/15 12:00:23;;;;;;;;;;;6.40;1.00;;;;;;5008402;28;19914;-69
2021/11/15 12:02:49;;;;;;;;;;;6.20;1.00;;;;;;5008332;28;19913;-69
2021/11/15 12:05:18;;;;;;;;;;;6.20;1.00;;;;;;5008631;28;19948;-69
2021/11/15 12:07:51;;;;;;;;;;;6.20;1.00;;;;;;5007399;28;19920;-69
2021/11/15 12:10:37;;;;;;;;;;;6.30;1.00;;;;;;5008951;28;19914;-69
2021/11/15 12:13:05;;;;;;;;;;;6.20;1.00;;;;;;5007763;28;20495;-69
2021/11/15 12:15:38;;;;;;;;;;;6.20;1.00;;;;;;5009199;28;20027;-70
2021/11/15 12:18:15;;;;;;;;;;;6.30;1.00;;;;;;5012241;28;19925;-69
2021/11/15 12:21:08;;;;;;;;;;;6.30;1.00;;;;;;4994990;28;19914;-70
2021/11/15 12:23:36;;;;;;;;;;;6.40;1.00;;;;;;5006349;28;19928;-70
2021/11/15 12:26:03;;;;;;;;;;;6.40;1.00;;;;;;5012218;28;20008;-70
2021/11/15 12:28:30;;;;;;;;;;;6.40;1.00;;;;;;5004123;28;19914;-70
2021/11/15 12:30:57;;;;;;;;;;;6.40;1.00;;;;;;5012466;28;19930;-70
2021/11/15 12:33:24;;;;;;;;;;;6.40;1.00;;;;;;4993189;28;20547;-70
2021/11/15 12:35:51;;;;;;;;;;;6.30;1.00;;;;;;5012450;28;20008;-70
2021/11/15 12:38:35;;;;;;;;;;;6.30;1.00;;;;;;5009209;28;19921;-70
2021/11/15 12:41:24;;;;;;;;;;;6.30;1.00;;;;;;5008036;28;19921;-70
2021/11/15 12:43:49;;;;;;;;;;;6.30;1.00;;;;;;4993761;28;19929;-70
2021/11/15 12:46:18;;;;;;;;;;;6.20;1.00;;;;;;5009981;28;20321;-71
2021/11/15 12:48:47;;;;;;;;;;;6.30;1.00;;;;;;5002008;28;19936;-70
2021/11/15 12:51:13;;;;;;;;;;;6.30;1.00;;;;;;4997626;28;19916;-70
2021/11/15 12:53:49;;;;;;;;;;;6.30;1.00;;;;;;5009830;28;20012;-70
2021/11/15 12:56:16;;;;;;;;;;;6.30;1.00;;;;;;5011952;28;19913;-70
2021/11/15 12:58:42;;;;;;;;;;;6.30;1.00;;;;;;5011717;28;19928;-70
2021/11/15 13:01:09;;;;;;;;;;;6.30;1.00;;;;;;5011900;28;19975;-70
2021/11/15 13:03:34;;;;;;;;;;;6.40;1.00;;;;;;5009516;28;19996;-69
2021/11/15 13:06:00;;;;;;;;;;;6.30;1.00;;;;;;5004203;28;19997;-70
2021/11/15 13:08:25;;;;;;;;;;;6.20;1.00;;;;;;5010624;28;20560;-69
2021/11/15 13:10:53;;;;;;;;;;;6.20;1.00;;;;;;5012206;28;20013;-70
2021/11/15 13:13:19;;;;;;;;;;;6.20;1.00;;;;;;5005376;28;19993;-69
2021/11/15 13:15:44;;;;;;;;;;;6.20;1.00;;;;;;5011591;28;19996;-68
2021/11/15 13:18:10;;;;;;;;;;;6.10;1.00;;;;;;5010171;28;19973;-69
2021/11/15 13:20:35;;;;;;;;;;;6.10;1.00;;;;;;5011592;28;19913;-68
2021/11/15 13:23:01;;;;;;;;;;;6.00;1.00;;;;;;5008143;28;19953;-69
2021/11/15 13:25:27;;;;;;;;;;;6.00;1.00;;;;;;5011256;28;20009;-69
2021/11/15 13:27:53;;;;;;;;;;;6.10;1.00;;;;;;5000589;28;19910;-70
2021/11/15 13:30:20;;;;;;;;;;;6.10;1.00;;;;;;5011619;28;19914;-70
2021/11/15 13:32:46;;;;;;;;;;;6.10;1.00;;;;;;5010101;28;20414;-69
2021/11/15 13:35:12;;;;;;;;;;;6.10;1.00;;;;;;5009154;28;19957;-69
2021/11/15 13:37:37;;;;;;;;;;;6.10;1.00;;;;;;4990480;28;19948;-69
2021/11/15 13:40:04;;;;;;;;;;;6.10;1.00;;;;;;5011605;28;19918;-69
2021/11/15 13:42:30;;;;;;;;;;;6.20;1.00;;;;;;5009910;28;19920;-68
2021/11/15 13:44:55;;;;;;;;;;;6.30;1.00;;;;;;5010442;28;19913;-69
2021/11/15 13:47:22;;;;;;;;;;;6.30;1.00;;;;;;5011035;28;20284;-69
2021/11/15 13:49:48;;;;;;;;;;;6.30;1.00;;;;;;5010521;28;20427;-69
2021/11/15 13:52:15;;;;;;;;;;;6.30;1.00;;;;;;5008283;28;19927;-69
2021/11/15 13:54:46;;;;;;;;;;;6.20;1.00;;;;;;5011030;28;19961;-68
2021/11/15 13:57:13;;;;;;;;;;;6.10;1.00;;;;;;5010298;28;19936;-69
2021/11/15 13:59:40;;;;;;;;;;;6.10;1.00;;;;;;5011001;28;19917;-69
2021/11/15 14:02:06;;;;;;;;;;;6.20;1.00;;;;;;5001545;28;19917;-70
2021/11/15 14:04:32;;;;;;;;;;;6.20;1.00;;;;;;5008528;28;19921;-69
2021/11/15 14:06:57;;;;;;;;;;;6.10;1.00;;;;;;5009859;28;20452;-69
2021/11/15 14:09:23;;;;;;;;;;;6.00;1.00;;;;;;5008518;28;19913;-69
2021/11/15 14:11:48;;;;;;;;;;;6.00;1.00;;;;;;5009308;28;19914;-69
2021/11/15 14:14:14;;;;;;;;;;;5.90;1.00;;;;;;5006147;28;19917;-70
2021/11/15 14:16:40;;;;;;;;;;;5.90;1.00;;;;;;5003341;28;19929;-69
2021/11/15 14:19:05;;;;;;;;;;;5.80;1.00;;;;;;5000631;28;19971;-70
2021/11/15 14:21:31;;;;;;;;;;;5.80;1.00;;;;;;5005716;28;19916;-69
2021/11/15 14:23:56;;;;;;;;;;;5.80;1.00;;;;;;4997344;28;20482;-70
2021/11/15 14:26:22;;;;;;;;;;;5.80;1.00;;;;;;5002692;28;19921;-70
2021/11/15 14:28:48;;;;;;;;;;;5.90;1.00;;;;;;5001652;28;19932;-69
2021/11/15 14:31:14;;;;;;;;;;;5.80;1.00;;;;;;5000432;28;20379;-68
2021/11/15 14:33:39;;;;;;;;;;;5.80;1.00;;;;;;5001637;28;19924;-68
2021/11/15 14:36:05;;;;;;;;;;;5.80;1.00;;;;;;4999891;28;19910;-70
2021/11/15 14:38:31;;;;;;;;;;;5.80;1.00;;;;;;5000529;28;20367;-67
2021/11/15 14:40:56;;;;;;;;;;;5.90;1.00;;;;;;5004571;28;19956;-67
2021/11/15 14:43:23;;;;;;;;;;;5.90;1.00;;;;;;5004777;28;19921;-68
2021/11/15 14:45:51;;;;;;;;;;;5.90;1.00;;;;;;5002637;28;20012;-69